Relevés horaires Bouveret (Suisse)


Relevés horaires à Bouveret - Mardi 03 Juill. 2018
Heure UTC1 Température [°C] Vent [km/h] Hum. [%] Pres.4 [hPa] Visi. [Km] Nébu. [octa] Préc.5 [mm] Cond.
2m. Res. Ros. Dir.2 Vit. Moy. Raf.3
23:00 20.1 20.1 15.2 SE 11.1 -- -- 73 1016.9 -- -- -- --
22:00 19.9 19.9 15.8 SE 3.7 -- -- 77 1016.9 -- -- -- --
21:00 22.0 22.0 15.9 ENE 5.6 -- 37.0 68 1016.7(1.1/3h) -- -- -- --
20:00 22.7 22.7 16.4 O 5.6 -- -- 68 1015.1 -- -- -- --
19:00 22.0 22.0 16.4 SE 18.5 -- -- 71 1014.8 -- -- -- --
18:00 22.4 22.4 18.0 NO 11.1 -- 46.3 76 1015.4(1.1/3h) -- -- -- --
17:00 24.3 24.3 17.5 ONO 35.2 -- -- 66 1014.8 -- -- -- --
16:00 25.2 25.2 17.3 ONO 18.5 -- -- 62 1013.8 -- -- -- --
15:00 24.1 24.1 17.4 NNE 5.6 -- 13.0 66 1014(-1.6/3h) -- -- -- --
14:00 23.3 23.3 17.8 N 5.6 -- -- 71 1014.9 -- -- -- --
13:00 21.9 21.9 17.7 NNO 7.4 -- -- 77 1015.4 -- -- -- --
12:00 21.6 21.6 16.8 NNO 7.4 -- 37.0 74 1016.1(-0.9/3h) -- -- -- --
11:00 21.4 21.4 16.3 ONO 5.6 -- -- 73 1016.8 -- -- -- --
10:00 20.8 20.8 16.0 ONO 7.4 -- -- 74 1017.1 -- -- -- --
09:00 20.6 20.6 16.6 NO 14.8 -- 37.0 78 1017.2 -- -- -- --
08:00 20.5 20.5 16.7 ONO 18.5 -- -- 79 1017.4 -- -- -- --
07:00 19.3 19.3 16.7 S 16.7 -- -- 85 1016 -- -- -- --
06:00 19.1 19 16.3 SE 16.7 -- 44.4 84 1016.3 -- -- -- --
05:00 18.3 18.3 16.4 SE 13.0 -- -- 89 1017.6 -- -- -- --
04:00 20.6 20.6 15.5 NE 20.4 -- -- 73 1016.7 -- -- -- --
03:00 21.3 21.3 15.1 S 7.4 -- 35.2 68 1014.9 -- -- -- --
02:00 21.8 21.8 15.5 SSE 16.7 -- -- 67 1014.4 -- -- -- --
01:00 21.6 21.6 16.0 SE 14.8 -- -- 70 1013.5 -- -- -- --
00:00 25.0 25.0 13.7 SSE 20.4 -- 50.0 49 1012.7 -- -- -- --

1 Coordinated Universal Time. Actuellement il est 18:00 locale et 16:00 UTC.

2 Le vent souffle depuis la direction indiquée vers la direction oposée.

3 Les rafales max. sont disponible 40 min après l'heure du relevé.

4 Pour les stations d'altitude (plus de 600m) le géopotentiel du niveau le plus proche de la pression obligatoire est indiqué.

5 Les stations disposant d'un diffuseur peuvent indiquer "trace". Cela signifie que des précipitations ont touchés le sol mais que la quantité est inférieure à 0.1 mm.

Copyright

Les données affichées sur cette page sont la propriété exclusive de Météo Suisse.

Récapitulatif de la journée
Température [°C] Vent [km/h] Ensoleillement4 [h] Precipitations totale5 [mm] Pression [Hpa]
Min1 Max.2 Moy.3 Max. Min Max.
18.2 25.4 0 50.0 0 h 0 min 0 1012.7 1017.6

1 Température minimale relevée entre 18:00 UTC la veille et 18:00 UTC le jour donné.

2 Température maximale relevée entre 06:00 UTC le jour donné et 06:00 UTC le lendemain.

3 Vent moyen de la journée basé sur les relevés horaires.

4 Ensoleillement en heures relevé entre 06:00 UTC la veille et 06:00 UTC le jour donné.

5 Précipitations totales tombées entre 06:00 UTC la jour donné et 06:00 UTC le lendemain.

Graphiques horaires